Time,TemperatureF,DewpointF,PressureIn,WindDirection,WindDirectionDegrees,WindSpeedMPH,WindSpeedGustMPH,Humidity,HourlyPrecipIn,Conditions,Clouds,dailyrainin,SoftwareType,DateUTC
2013-07-16 00:32:00,76.0,70.0,30.34,West,277,0.0,2.0,81,0.00,,,0.00,,2013-07-16 04:32:00,
2013-07-16 00:43:00,76.0,70.0,30.34,West,278,0.0,1.0,81,0.00,,,0.00,,2013-07-16 04:43:00,
2013-07-16 00:53:00,76.0,70.0,30.34,West,279,0.0,1.0,81,0.00,,,0.00,,2013-07-16 04:53:00,
2013-07-16 01:01:00,76.0,70.0,30.34,West,281,0.0,1.0,81,0.00,,,0.00,,2013-07-16 05:01:00,
2013-07-16 01:52:00,75.0,70.0,30.34,WNW,288,1.0,4.0,84,0.00,,,0.00,,2013-07-16 05:52:00,
2013-07-16 02:01:00,75.0,70.0,30.34,WNW,286,1.0,4.0,84,0.00,,,0.00,,2013-07-16 06:01:00,
2013-07-16 02:11:00,75.0,70.0,30.34,WNW,286,0.0,3.0,84,0.00,,,0.00,,2013-07-16 06:11:00,
2013-07-16 02:43:00,74.0,70.0,30.34,WNW,284,2.0,3.0,86,0.00,,,0.00,,2013-07-16 06:43:00,
2013-07-16 02:52:00,74.0,70.0,30.33,WNW,284,0.0,3.0,86,0.00,,,0.00,,2013-07-16 06:52:00,
2013-07-16 03:32:00,73.0,69.0,30.33,WNW,284,2.0,3.0,86,0.00,,,0.00,,2013-07-16 07:32:00,
2013-07-16 03:43:00,73.0,69.0,30.33,WNW,288,0.0,3.0,87,0.00,,,0.00,,2013-07-16 07:43:00,
2013-07-16 03:52:00,73.0,69.0,30.33,WNW,288,2.0,3.0,87,0.00,,,0.00,,2013-07-16 07:52:00,
2013-07-16 04:01:00,73.0,69.0,30.33,West,278,1.0,4.0,87,0.00,,,0.00,,2013-07-16 08:01:00,
2013-07-16 04:11:00,73.0,69.0,30.33,West,278,2.0,3.0,87,0.00,,,0.00,,2013-07-16 08:11:00,
2013-07-16 04:32:00,73.0,69.0,30.32,West,275,1.0,5.0,87,0.00,,,0.00,,2013-07-16 08:32:00,
2013-07-16 04:43:00,73.0,69.0,30.32,West,275,1.0,3.0,87,0.00,,,0.00,,2013-07-16 08:43:00,
2013-07-16 04:52:00,73.0,69.0,30.32,West,277,3.0,4.0,87,0.00,,,0.00,,2013-07-16 08:52:00,
2013-07-16 05:01:00,73.0,69.0,30.32,West,267,3.0,4.0,87,0.00,,,0.00,,2013-07-16 09:01:00,
2013-07-16 05:32:00,72.0,68.0,30.33,West,273,2.0,3.0,87,0.00,,,0.00,,2013-07-16 09:32:00,
2013-07-16 05:42:00,72.0,68.0,30.33,West,273,0.0,3.0,87,0.00,,,0.00,,2013-07-16 09:42:00,
2013-07-16 05:52:00,72.0,68.0,30.33,West,273,0.0,3.0,87,0.00,,,0.00,,2013-07-16 09:52:00,
2013-07-16 06:11:00,72.0,68.0,30.34,West,269,1.0,4.0,87,0.00,,,0.00,,2013-07-16 10:11:00,
2013-07-16 06:43:00,73.0,69.0,30.35,NNW,337,2.0,5.0,86,0.00,,,0.00,,2013-07-16 10:43:00,
2013-07-16 06:52:00,73.0,69.0,30.34,West,273,1.0,5.0,86,0.00,,,0.00,,2013-07-16 10:52:00,
2013-07-16 07:32:00,73.0,68.0,30.35,WNW,299,4.0,6.0,85,0.00,,,0.00,,2013-07-16 11:32:00,
2013-07-16 07:42:00,74.0,69.0,30.35,NW,325,1.0,4.0,85,0.00,,,0.00,,2013-07-16 11:42:00,
2013-07-16 07:53:00,74.0,69.0,30.35,NW,314,0.0,5.0,85,0.00,,,0.00,,2013-07-16 11:53:00,
2013-07-16 08:32:00,77.0,69.0,30.35,West,274,5.0,8.0,77,0.00,,,0.00,,2013-07-16 12:32:00,
2013-07-16 08:53:00,78.0,70.0,30.35,ENE,70,2.0,7.0,77,0.00,,,0.00,,2013-07-16 12:53:00,
2013-07-16 09:01:00,80.0,71.0,30.35,NNE,12,1.0,5.0,73,0.00,,,0.00,,2013-07-16 13:01:00,
2013-07-16 09:42:00,84.0,71.0,30.35,NW,323,2.0,6.0,65,0.00,,,0.00,,2013-07-16 13:42:00,
2013-07-16 09:52:00,85.0,71.0,30.35,West,267,3.0,6.0,64,0.00,,,0.00,,2013-07-16 13:52:00,
2013-07-16 11:32:00,89.0,72.0,30.34,NNE,23,1.0,5.0,58,0.00,,,0.00,,2013-07-16 15:32:00,
2013-07-16 11:43:00,91.0,72.0,30.33,NNW,331,2.0,6.0,54,0.00,,,0.00,,2013-07-16 15:43:00,
2013-07-16 12:01:00,90.0,72.0,30.33,South,186,4.0,8.0,55,0.00,,,0.00,,2013-07-16 16:01:00,
2013-07-16 12:43:00,92.0,70.0,30.32,WNW,284,5.0,9.0,49,0.00,,,0.00,,2013-07-16 16:43:00,
2013-07-16 13:02:00,92.0,68.0,30.32,North,360,6.0,12.0,46,0.00,,,0.00,,2013-07-16 17:02:00,
2013-07-16 13:12:00,91.0,67.0,30.32,ESE,105,6.0,12.0,45,0.00,,,0.00,,2013-07-16 17:12:00,
2013-07-16 13:53:00,94.0,67.0,30.30,NE,34,2.0,7.0,41,0.00,,,0.00,,2013-07-16 17:53:00,
2013-07-16 14:01:00,94.0,69.0,30.30,NNE,13,5.0,10.0,44,0.00,,,0.00,,2013-07-16 18:01:00,
2013-07-16 15:01:00,94.0,69.0,30.28,NW,308,4.0,9.0,44,0.00,,,0.00,,2013-07-16 19:01:00,
2013-07-16 16:03:00,93.0,68.0,30.27,West,274,2.0,10.0,45,0.00,,,0.00,,2013-07-16 20:03:00,
2013-07-16 16:32:00,94.0,68.0,30.26,NNE,26,5.0,9.0,43,0.00,,,0.00,,2013-07-16 20:32:00,
2013-07-16 16:43:00,95.0,69.0,30.25,NNW,346,1.0,4.0,43,0.00,,,0.00,,2013-07-16 20:43:00,
2013-07-16 17:11:00,93.0,68.0,30.25,SE,126,0.0,6.0,44,0.00,,,0.00,,2013-07-16 21:11:00,
2013-07-16 17:52:00,93.0,70.0,30.24,NNW,331,6.0,10.0,47,0.00,,,0.00,,2013-07-16 21:52:00,
2013-07-16 19:32:00,77.0,70.0,30.30,NNW,338,1.0,6.0,78,0.01,,,0.01,,2013-07-16 23:32:00,
2013-07-16 19:43:00,76.0,69.0,30.30,West,276,1.0,7.0,79,0.00,,,0.01,,2013-07-16 23:43:00,
2013-07-16 19:52:00,76.0,69.0,30.30,West,275,0.0,4.0,80,0.00,,,0.01,,2013-07-16 23:52:00,
2013-07-16 20:01:00,76.0,69.0,30.30,WSW,246,3.0,7.0,80,0.00,,,0.01,,2013-07-17 00:01:00,
2013-07-16 20:42:00,76.0,70.0,30.30,NNW,344,0.0,3.0,83,0.00,,,0.01,,2013-07-17 00:42:00,
2013-07-16 20:52:00,77.0,71.0,30.31,NNW,348,0.0,2.0,83,0.00,,,0.01,,2013-07-17 00:52:00,
2013-07-16 21:01:00,76.0,70.0,30.31,WNW,287,0.0,4.0,83,0.00,,,0.01,,2013-07-17 01:01:00,
2013-07-16 21:12:00,76.0,71.0,30.31,WNW,288,0.0,2.0,84,0.00,,,0.01,,2013-07-17 01:12:00,
2013-07-16 21:32:00,76.0,71.0,30.30,North,360,0.0,5.0,84,0.00,,,0.01,,2013-07-17 01:32:00,
2013-07-16 21:43:00,76.0,71.0,30.30,North,360,1.0,3.0,84,0.00,,,0.01,,2013-07-17 01:43:00,
2013-07-16 21:53:00,76.0,71.0,30.31,North,9,0.0,2.0,84,0.00,,,0.01,,2013-07-17 01:53:00,
2013-07-16 22:01:00,77.0,72.0,30.30,NNW,342,2.0,3.0,84,0.00,,,0.01,,2013-07-17 02:01:00,
2013-07-16 22:32:00,76.0,70.0,30.30,North,355,0.0,1.0,83,0.00,,,0.01,,2013-07-17 02:32:00,
2013-07-16 22:53:00,77.0,72.0,30.31,NNW,337,2.0,4.0,84,0.00,,,0.01,,2013-07-17 02:53:00,
2013-07-16 23:01:00,76.0,71.0,30.30,NNE,27,0.0,2.0,85,0.00,,,0.01,,2013-07-17 03:01:00,